Seekonk, Massachusetts
Current Conditions -  °F | °C
As of 12:51 PM on Sunday 25 Jan 2015 (Local Time) from KPVD Reporting Station
Scattered Clouds Scattered Clouds  
Wind Chill: 27°   Ceiling: Unl
Heat Index: 37°   Visibility: 10mi
Dew Point: 19°   Wind: 17mph
Humidity: 48%   Direction: 290°WNW
Pressure: 29.66"   Gusts: 23mph
Location:  41.81°N, 71.34°W
Report Text: KPVD 251751Z 29015G20KT 10SM FEW030 SCT040 03/M07 A2966 RMK AO2 PK WND 31029/1720 SLP044 T00281072 10033 21011 51010 $
Loading
Personal Weather Stations






























Interactive Weather Map New forecast layout! Learn more

10-Day Weather Forecast

Advertisements
Track Severe Weather on mobile